Capitol Logistics 787


VHHH
Chek Lap Kok International
Hong Kong, HK
YSSY
Kingsford Smith International Airport
Sydney, AU

Route Details

Aircraft Information
Primary: Boeing 747-400BCF
Backup: Boeing 777-200LRF
Route Data
Distance: 3997nm
Sched. Duration: 9h 19m
Avg. Duration: 8h 41m (-78m)
Times Flown: 1
Recm'd Route: OCEAN V5 SABNO A583 IBOBI A583 ZAM A461 BUTPA A461 DN J251 TN T74 ENPAG H319 TARAL Y59 RIVET
Planned Altitude: 33,000ft
Origin Wx: VHHH 270000Z 10015KT 9999 -RA FEW008 SCT028 20/18 Q1020 NOSIG
Dest. Wx: YSSY 270000Z 16003KT 9999 SCT034 22/14 Q1011 NOSIG
Notes:

Financial History
Total Freight: 187,823lbs
Average Load: 187,823lbs/flt
Fuel Used: 201,414lbs
Avg. Fuel Used: 201,414lbs/flt
Fuel Expense: $239,683
Avg. Fuel Expense: $239,683
Avg. Fuel Cost: $1.19/lbs
Total Gross Income: $663,015
Pilot Pay: $149
Total Expenses: $71,658
Total Revenue: $350,378
Average Revenue: $663,015.19